createdAt,value
2023-01-29T00:00:46.489Z,9.20
2023-01-29T00:03:35.506Z,12.87
2023-01-29T00:06:24.365Z,11.47
2023-01-29T00:09:13.802Z,10.77
2023-01-29T00:12:02.644Z,11.70
2023-01-29T00:14:52.846Z,12.87
2023-01-29T00:17:41.525Z,11.93
2023-01-29T00:20:31.036Z,13.57
2023-01-29T00:23:23.432Z,12.67
2023-01-29T00:26:13.082Z,12.20
2023-01-29T00:29:06.008Z,11.53
2023-01-29T00:31:56.626Z,12.60
2023-01-29T00:34:45.361Z,11.93
2023-01-29T00:37:34.118Z,10.83
2023-01-29T00:40:23.743Z,11.27
2023-01-29T00:43:30.250Z,10.77
2023-01-29T00:46:18.963Z,9.83
2023-01-29T00:49:09.948Z,9.97
2023-01-29T00:52:16.302Z,9.53
2023-01-29T00:55:06.417Z,11.53
2023-01-29T00:57:55.237Z,9.13
2023-01-29T01:00:44.123Z,9.50
2023-01-29T01:03:35.342Z,9.50
2023-01-29T01:06:25.555Z,8.93
2023-01-29T01:09:31.769Z,8.00
2023-01-29T01:12:20.459Z,7.63
2023-01-29T01:15:10.330Z,7.27
2023-01-29T01:18:01.689Z,7.73
2023-01-29T01:20:51.839Z,6.83
2023-01-29T01:23:42.007Z,7.87
2023-01-29T01:26:31.301Z,8.07
2023-01-29T01:29:20.025Z,6.10
2023-01-29T01:32:08.719Z,6.90
2023-01-29T01:34:57.544Z,7.70
2023-01-29T01:37:46.330Z,9.27
2023-01-29T01:40:37.018Z,7.80
2023-01-29T01:43:25.791Z,8.50
2023-01-29T01:46:14.733Z,8.53
2023-01-29T01:49:06.353Z,9.97
2023-01-29T01:51:55.282Z,9.17
2023-01-29T01:54:44.984Z,7.93
2023-01-29T02:00:41.909Z,7.60
2023-01-29T02:03:52.855Z,11.00
2023-01-29T02:07:00.528Z,8.83
2023-01-29T02:09:54.158Z,9.03
2023-01-29T02:12:46.838Z,11.73
2023-01-29T02:15:41.956Z,9.47
2023-01-29T02:18:38.140Z,10.27
2023-01-29T02:22:04.829Z,11.77
2023-01-29T02:25:18.172Z,10.00
2023-01-29T02:28:24.897Z,9.67
2023-01-29T02:31:23.284Z,9.90
2023-01-29T02:34:20.739Z,14.60
2023-01-29T02:37:12.326Z,11.77
2023-01-29T02:40:10.397Z,12.67
2023-01-29T02:43:08.099Z,9.70
2023-01-29T02:46:09.619Z,10.97
2023-01-29T02:49:03.501Z,11.93
2023-01-29T02:52:00.766Z,10.67
2023-01-29T02:54:56.131Z,10.10
2023-01-29T02:57:48.180Z,9.70
2023-01-29T03:00:40.876Z,10.27
2023-01-29T03:03:39.728Z,11.03
2023-01-29T03:06:33.678Z,9.63
2023-01-29T03:09:27.741Z,11.07
2023-01-29T03:12:34.177Z,13.53
2023-01-29T03:15:30.060Z,13.20
2023-01-29T03:18:48.851Z,12.83
2023-01-29T03:22:00.264Z,12.23
2023-01-29T03:25:12.286Z,13.80
2023-01-29T03:28:22.892Z,13.73
2023-01-29T03:31:33.464Z,13.97
2023-01-29T03:34:34.781Z,13.03
2023-01-29T03:37:31.323Z,14.80
2023-01-29T03:40:24.364Z,12.20
2023-01-29T03:43:22.948Z,15.00
2023-01-29T03:46:19.196Z,13.70
2023-01-29T03:49:19.193Z,12.77
2023-01-29T03:52:17.691Z,12.40
2023-01-29T03:55:14.308Z,11.50
2023-01-29T03:58:10.437Z,13.00
2023-01-29T04:01:03.669Z,15.10
2023-01-29T04:03:58.369Z,12.33
2023-01-29T04:06:50.930Z,14.97
2023-01-29T04:09:47.907Z,10.97
2023-01-29T04:12:42.329Z,12.10
2023-01-29T04:15:35.885Z,13.90
2023-01-29T04:18:25.756Z,12.27
2023-01-29T04:21:32.150Z,12.93
2023-01-29T04:24:21.450Z,12.13
2023-01-29T04:27:27.495Z,12.93
2023-01-29T04:30:34.684Z,11.13
2023-01-29T04:33:35.417Z,11.73
2023-01-29T04:36:35.855Z,11.90
2023-01-29T04:39:28.971Z,11.70
2023-01-29T04:42:30.296Z,11.87
2023-01-29T04:45:28.985Z,13.13
2023-01-29T04:48:23.382Z,12.70
2023-01-29T04:51:21.307Z,11.27
2023-01-29T04:54:17.045Z,11.37
2023-01-29T04:57:13.098Z,11.77
2023-01-29T05:00:08.595Z,12.50
2023-01-29T05:02:58.423Z,12.63
2023-01-29T05:05:49.408Z,12.37
2023-01-29T05:08:40.381Z,14.77
2023-01-29T05:11:31.747Z,12.77
2023-01-29T05:14:22.143Z,13.40
2023-01-29T05:17:16.643Z,13.27
2023-01-29T05:20:06.168Z,14.10
2023-01-29T05:22:55.027Z,14.37
2023-01-29T05:25:46.907Z,12.03
2023-01-29T05:28:34.673Z,14.70
2023-01-29T05:31:23.642Z,12.60
2023-01-29T05:34:17.398Z,12.67
2023-01-29T05:37:06.456Z,14.50
2023-01-29T05:39:55.208Z,12.97
2023-01-29T05:42:44.457Z,13.17
2023-01-29T05:45:33.177Z,12.87
2023-01-29T05:48:22.137Z,15.60
2023-01-29T05:51:12.624Z,14.37
2023-01-29T05:54:01.429Z,13.93
2023-01-29T05:56:53.394Z,13.30
2023-01-29T05:59:42.075Z,16.20
2023-01-29T06:02:32.655Z,13.23
2023-01-29T06:05:21.473Z,13.40
2023-01-29T06:08:11.619Z,15.17
2023-01-29T06:11:00.505Z,16.70
2023-01-29T06:13:49.471Z,15.57
2023-01-29T06:16:38.264Z,15.67
2023-01-29T06:19:27.015Z,15.77
2023-01-29T06:22:15.700Z,14.03
2023-01-29T06:25:06.747Z,13.87
2023-01-29T06:27:58.409Z,12.07
2023-01-29T06:30:48.592Z,14.90
2023-01-29T06:33:37.605Z,14.73
2023-01-29T06:36:26.412Z,15.73
2023-01-29T06:39:15.328Z,17.03
2023-01-29T06:42:05.609Z,16.20
2023-01-29T06:44:54.349Z,19.13
2023-01-29T06:47:43.020Z,16.87
2023-01-29T06:50:32.673Z,14.77
2023-01-29T06:53:21.431Z,15.73
2023-01-29T06:56:10.720Z,18.37
2023-01-29T06:59:01.205Z,20.23
2023-01-29T07:01:50.180Z,18.27
2023-01-29T07:04:39.354Z,20.60
2023-01-29T07:07:29.286Z,17.23
2023-01-29T07:10:18.955Z,16.23
2023-01-29T07:13:07.840Z,16.13
2023-01-29T07:16:00.059Z,17.57
2023-01-29T07:18:48.754Z,18.80
2023-01-29T07:21:41.697Z,23.83
2023-01-29T07:24:31.315Z,14.53
2023-01-29T07:27:20.035Z,12.70
2023-01-29T07:30:10.440Z,17.83
2023-01-29T07:33:07.073Z,14.07
2023-01-29T07:35:56.077Z,15.43
2023-01-29T07:38:44.707Z,19.70
2023-01-29T07:41:33.764Z,12.93
2023-01-29T07:44:22.601Z,13.60
2023-01-29T07:47:11.354Z,19.27
2023-01-29T07:50:01.677Z,15.07
2023-01-29T07:52:50.943Z,15.07
2023-01-29T07:55:39.737Z,16.10
2023-01-29T07:58:31.108Z,15.30
2023-01-29T08:01:19.878Z,17.20
2023-01-29T08:04:08.596Z,15.43
2023-01-29T08:06:59.312Z,14.97
2023-01-29T08:09:48.520Z,15.27
2023-01-29T08:12:37.534Z,13.87
2023-01-29T08:15:26.734Z,14.60
2023-01-29T08:18:15.985Z,16.07
2023-01-29T08:21:05.253Z,15.70
2023-01-29T08:23:55.303Z,15.20
2023-01-29T08:26:44.220Z,16.17
2023-01-29T08:29:33.157Z,15.93
2023-01-29T08:32:21.899Z,13.03
2023-01-29T08:35:11.187Z,13.13
2023-01-29T08:38:01.583Z,14.30
2023-01-29T08:40:51.765Z,16.47
2023-01-29T08:43:40.721Z,14.77
2023-01-29T08:46:30.099Z,13.77
2023-01-29T08:49:18.834Z,12.77
2023-01-29T08:52:07.641Z,12.87
2023-01-29T08:54:56.261Z,15.37
2023-01-29T08:57:46.564Z,14.20
2023-01-29T09:00:36.186Z,12.77
2023-01-29T09:03:24.986Z,13.90
2023-01-29T09:06:18.909Z,13.33
2023-01-29T09:09:08.392Z,12.83
2023-01-29T09:11:57.303Z,13.90
2023-01-29T09:14:47.435Z,16.20
2023-01-29T09:17:36.264Z,12.93
2023-01-29T09:20:25.010Z,12.47
2023-01-29T09:23:13.869Z,13.37
2023-01-29T09:26:02.885Z,15.47
2023-01-29T09:28:51.665Z,17.53
2023-01-29T09:31:41.845Z,14.90
2023-01-29T09:34:31.470Z,13.07
2023-01-29T09:37:23.455Z,14.47
2023-01-29T09:40:27.242Z,15.33
2023-01-29T09:43:19.491Z,17.20
2023-01-29T09:46:17.159Z,13.53
2023-01-29T09:49:13.130Z,21.30
2023-01-29T09:52:06.799Z,16.83
2023-01-29T09:55:06.989Z,15.87
2023-01-29T09:58:01.371Z,23.27
2023-01-29T10:00:58.787Z,15.70
2023-01-29T10:04:08.793Z,15.77
2023-01-29T10:07:08.265Z,17.03
2023-01-29T10:10:21.405Z,17.47
2023-01-29T10:13:21.760Z,16.47
2023-01-29T10:16:22.153Z,15.67
2023-01-29T10:19:37.166Z,17.10
2023-01-29T10:22:56.360Z,19.77
2023-01-29T10:25:47.531Z,18.07
2023-01-29T10:28:46.131Z,14.57
2023-01-29T10:31:39.134Z,19.30
2023-01-29T10:34:34.529Z,20.67
2023-01-29T10:37:26.142Z,20.10
2023-01-29T10:40:22.135Z,18.27
2023-01-29T10:43:16.798Z,17.63
2023-01-29T10:46:17.915Z,18.43
2023-01-29T10:49:23.409Z,19.77
2023-01-29T10:52:27.425Z,18.03
2023-01-29T10:55:36.025Z,19.27
2023-01-29T10:58:34.642Z,16.87
2023-01-29T11:01:23.904Z,17.77
2023-01-29T11:04:14.671Z,20.03
2023-01-29T11:07:07.023Z,26.03
2023-01-29T11:10:04.061Z,26.63
2023-01-29T11:12:54.156Z,30.70
2023-01-29T11:15:43.066Z,35.37
2023-01-29T11:18:54.700Z,24.67
2023-01-29T11:21:56.700Z,18.30
2023-01-29T11:24:45.806Z,21.83
2023-01-29T11:27:41.058Z,24.70
2023-01-29T11:30:34.689Z,27.53
2023-01-29T11:33:24.943Z,24.13
2023-01-29T11:36:33.060Z,23.03
2023-01-29T11:39:23.024Z,18.53
2023-01-29T11:42:21.594Z,18.50
2023-01-29T11:45:27.418Z,17.17
2023-01-29T11:48:18.370Z,17.80
2023-01-29T11:51:07.470Z,18.33
2023-01-29T11:54:00.191Z,18.03
2023-01-29T11:56:51.863Z,18.80
2023-01-29T11:59:48.637Z,19.30
2023-01-29T12:02:43.756Z,19.33
2023-01-29T12:05:33.319Z,19.00
2023-01-29T12:08:23.738Z,18.77
2023-01-29T12:11:25.630Z,16.33
2023-01-29T12:14:30.311Z,16.10
2023-01-29T12:17:26.453Z,19.93
2023-01-29T12:20:21.511Z,21.30
2023-01-29T12:23:25.172Z,18.53
2023-01-29T12:26:17.909Z,20.10
2023-01-29T12:29:21.652Z,18.80
2023-01-29T12:32:19.712Z,19.17
2023-01-29T12:35:17.290Z,19.27
2023-01-29T12:38:15.908Z,18.47
2023-01-29T12:41:09.104Z,19.37
2023-01-29T12:44:02.707Z,21.47
2023-01-29T12:46:55.688Z,20.53
2023-01-29T12:49:49.464Z,19.27
2023-01-29T12:52:42.121Z,18.63
2023-01-29T12:55:39.289Z,18.07
2023-01-29T12:58:33.718Z,19.93
2023-01-29T13:01:31.276Z,25.00
2023-01-29T13:04:27.475Z,20.27
2023-01-29T13:07:20.438Z,20.37
2023-01-29T13:10:15.377Z,18.93
2023-01-29T13:13:12.350Z,20.13
2023-01-29T13:16:02.352Z,20.47
2023-01-29T13:18:55.927Z,22.07
2023-01-29T13:21:46.584Z,22.13
2023-01-29T13:24:40.238Z,23.07
2023-01-29T13:27:31.732Z,24.63
2023-01-29T13:30:31.328Z,20.40
2023-01-29T13:33:25.100Z,22.97
2023-01-29T13:36:20.971Z,25.97
2023-01-29T13:39:18.393Z,22.80
2023-01-29T13:42:18.193Z,23.30
2023-01-29T13:45:09.362Z,24.77
2023-01-29T13:48:11.639Z,24.17
2023-01-29T13:51:04.129Z,24.10
2023-01-29T13:53:57.396Z,23.37
2023-01-29T13:57:01.158Z,24.33
2023-01-29T13:59:56.428Z,22.83
2023-01-29T14:02:45.361Z,22.17
2023-01-29T14:05:42.882Z,21.50
2023-01-29T14:08:41.114Z,24.10
2023-01-29T14:11:37.200Z,25.37
2023-01-29T14:15:02.519Z,25.80
2023-01-29T14:18:24.689Z,27.80
2023-01-29T14:21:25.321Z,50.37
2023-01-29T14:24:20.003Z,30.50
2023-01-29T14:27:21.330Z,29.47
2023-01-29T14:30:17.732Z,29.93
2023-01-29T14:33:18.497Z,31.33
2023-01-29T14:36:12.491Z,31.57
2023-01-29T14:39:03.074Z,30.00
2023-01-29T14:41:53.974Z,29.87
2023-01-29T14:44:57.926Z,28.00
2023-01-29T14:48:21.133Z,28.07
2023-01-29T14:51:12.253Z,27.57
2023-01-29T14:54:05.984Z,30.13
2023-01-29T14:57:00.470Z,26.60
2023-01-29T14:59:57.147Z,27.57
2023-01-29T15:02:46.931Z,30.83
2023-01-29T15:05:39.242Z,25.17
2023-01-29T15:08:33.879Z,30.77
2023-01-29T15:11:38.464Z,30.67
2023-01-29T15:14:33.910Z,25.93
2023-01-29T15:17:30.152Z,28.83
2023-01-29T15:20:30.034Z,26.53
2023-01-29T15:23:30.065Z,24.03
2023-01-29T15:26:21.620Z,27.67
2023-01-29T15:29:25.391Z,31.10
2023-01-29T15:32:28.342Z,31.30
2023-01-29T15:35:29.983Z,27.40
2023-01-29T15:38:20.122Z,26.63
2023-01-29T15:41:20.231Z,26.00
2023-01-29T15:44:14.763Z,26.10
2023-01-29T15:47:05.003Z,24.90
2023-01-29T15:49:54.523Z,28.40
2023-01-29T15:52:43.465Z,23.60
2023-01-29T15:55:33.975Z,24.87
2023-01-29T15:58:31.728Z,29.70
2023-01-29T16:01:21.313Z,29.17
2023-01-29T16:04:16.197Z,31.67
2023-01-29T16:07:05.066Z,32.57
2023-01-29T16:09:55.125Z,26.93
2023-01-29T16:12:47.394Z,33.30
2023-01-29T16:15:39.415Z,33.53
2023-01-29T16:18:34.535Z,30.57
2023-01-29T16:21:29.983Z,30.80
2023-01-29T16:24:22.536Z,35.57
2023-01-29T16:27:15.293Z,31.97
2023-01-29T16:30:05.573Z,31.40
2023-01-29T16:32:54.593Z,35.87
2023-01-29T16:35:43.972Z,33.00
2023-01-29T16:38:36.625Z,34.73
2023-01-29T16:41:35.967Z,35.83
2023-01-29T16:44:34.724Z,36.40
2023-01-29T16:47:32.349Z,38.07
2023-01-29T16:50:27.781Z,37.43
2023-01-29T16:53:22.052Z,36.50
2023-01-29T16:56:12.260Z,37.20
2023-01-29T16:59:02.845Z,40.80
2023-01-29T17:01:51.890Z,38.30
2023-01-29T17:04:42.465Z,35.03
2023-01-29T17:07:35.892Z,45.50
2023-01-29T17:10:25.839Z,36.83
2023-01-29T17:13:30.195Z,36.40
2023-01-29T17:16:24.619Z,37.23
2023-01-29T17:19:20.902Z,39.73
2023-01-29T17:22:14.827Z,36.53
2023-01-29T17:25:03.765Z,35.83
2023-01-29T17:27:55.717Z,36.23
2023-01-29T17:30:56.561Z,38.13
2023-01-29T17:33:49.260Z,39.60
2023-01-29T17:36:37.991Z,36.77
2023-01-29T17:39:26.748Z,37.77
2023-01-29T17:42:16.299Z,39.17
2023-01-29T17:45:05.444Z,52.10
2023-01-29T17:47:56.116Z,38.17
2023-01-29T17:50:48.521Z,41.80
2023-01-29T17:53:45.612Z,39.87
2023-01-29T17:56:35.284Z,42.17
2023-01-29T17:59:25.789Z,36.57
2023-01-29T18:02:29.648Z,59.07
2023-01-29T18:05:20.500Z,40.50
2023-01-29T18:08:15.929Z,36.97
2023-01-29T18:11:04.824Z,43.47
2023-01-29T18:13:53.563Z,38.13
2023-01-29T18:16:42.811Z,35.60
2023-01-29T18:19:32.495Z,35.50
2023-01-29T18:22:22.849Z,35.43
2023-01-29T18:25:11.600Z,33.13
2023-01-29T18:28:00.471Z,34.93
2023-01-29T18:30:49.281Z,34.30
2023-01-29T18:33:38.593Z,34.50
2023-01-29T18:36:27.543Z,38.80
2023-01-29T18:39:18.265Z,39.10
2023-01-29T18:42:07.390Z,35.93
2023-01-29T18:44:56.120Z,37.77
2023-01-29T18:47:44.868Z,34.67
2023-01-29T18:50:33.905Z,35.50
2023-01-29T18:53:22.672Z,38.13
2023-01-29T18:56:16.535Z,37.23
2023-01-29T18:59:06.663Z,39.37
2023-01-29T19:01:55.878Z,41.40
2023-01-29T19:04:44.646Z,40.90
2023-01-29T19:07:52.742Z,40.10
2023-01-29T19:10:41.763Z,39.63
2023-01-29T19:13:32.309Z,40.70
2023-01-29T19:16:21.007Z,38.67
2023-01-29T19:19:09.776Z,41.77
2023-01-29T19:21:58.782Z,41.07
2023-01-29T19:24:47.517Z,40.73
2023-01-29T19:27:36.243Z,39.77
2023-01-29T19:30:26.527Z,37.10
2023-01-29T19:33:15.350Z,41.27
2023-01-29T19:36:04.258Z,42.63
2023-01-29T19:38:53.076Z,42.43
2023-01-29T19:41:42.451Z,39.87
2023-01-29T19:44:31.311Z,45.07
2023-01-29T19:47:21.481Z,42.77
2023-01-29T19:50:11.847Z,43.17
2023-01-29T19:53:00.678Z,39.87
2023-01-29T19:55:49.496Z,37.67
2023-01-29T19:58:38.454Z,36.40
2023-01-29T20:01:29.982Z,36.23
2023-01-29T20:04:20.136Z,38.50
2023-01-29T20:07:12.221Z,41.87
2023-01-29T20:10:01.210Z,40.53
2023-01-29T20:12:49.894Z,42.73
2023-01-29T20:15:38.755Z,42.47
2023-01-29T20:18:30.984Z,43.67
2023-01-29T20:21:23.126Z,41.27
2023-01-29T20:24:13.560Z,41.13
2023-01-29T20:27:03.173Z,42.60
2023-01-29T20:29:52.706Z,44.47
2023-01-29T20:32:41.587Z,42.57
2023-01-29T20:35:31.672Z,39.30
2023-01-29T20:38:22.103Z,36.90
2023-01-29T20:41:14.685Z,41.23
2023-01-29T20:44:03.425Z,35.77
2023-01-29T20:46:52.114Z,39.23
2023-01-29T20:49:40.933Z,34.07
2023-01-29T20:52:30.097Z,35.77
2023-01-29T20:55:20.858Z,35.07
2023-01-29T20:58:10.238Z,34.47
2023-01-29T21:00:59.109Z,38.23
2023-01-29T21:03:48.769Z,37.77
2023-01-29T21:06:37.554Z,34.63
2023-01-29T21:09:26.334Z,35.13
2023-01-29T21:12:16.796Z,37.90
2023-01-29T21:15:05.997Z,36.20
2023-01-29T21:17:55.073Z,40.10
2023-01-29T21:20:44.075Z,39.10
2023-01-29T21:23:33.207Z,35.43
2023-01-29T21:26:23.720Z,38.17
2023-01-29T21:29:14.570Z,38.63
2023-01-29T21:32:04.563Z,36.43
2023-01-29T21:34:53.344Z,40.93
2023-01-29T21:37:42.581Z,34.63
2023-01-29T21:40:35.502Z,42.17
2023-01-29T21:43:23.264Z,40.60
2023-01-29T21:46:13.617Z,37.63
2023-01-29T21:49:02.489Z,36.47
2023-01-29T21:51:51.792Z,41.77
2023-01-29T21:54:41.170Z,38.63
2023-01-29T21:57:30.047Z,35.50
2023-01-29T22:00:19.993Z,37.27
2023-01-29T22:03:10.619Z,36.33
2023-01-29T22:05:59.332Z,36.57
2023-01-29T22:08:50.263Z,35.73
2023-01-29T22:11:39.195Z,42.30
2023-01-29T22:14:28.309Z,37.17
2023-01-29T22:17:17.481Z,36.00
2023-01-29T22:20:09.304Z,38.20
2023-01-29T22:23:00.666Z,37.83
2023-01-29T22:25:49.477Z,35.70
2023-01-29T22:28:38.340Z,35.57
2023-01-29T22:31:27.112Z,34.47
2023-01-29T22:34:16.420Z,38.53
2023-01-29T22:37:06.443Z,39.63
2023-01-29T22:39:55.653Z,41.07
2023-01-29T22:42:44.305Z,37.10
2023-01-29T22:45:33.995Z,37.70
2023-01-29T22:48:24.029Z,38.00
2023-01-29T22:51:13.921Z,37.80
2023-01-29T22:54:04.826Z,37.90
2023-01-29T22:56:53.575Z,36.20
2023-01-29T22:59:42.683Z,37.60
2023-01-29T23:02:31.650Z,38.30
2023-01-29T23:05:20.525Z,36.73
2023-01-29T23:08:09.241Z,38.87
2023-01-29T23:11:14.094Z,32.93
2023-01-29T23:14:03.113Z,40.67
2023-01-29T23:16:51.890Z,36.20
2023-01-29T23:19:40.605Z,36.03
2023-01-29T23:22:29.916Z,34.10
2023-01-29T23:25:18.805Z,33.83
2023-01-29T23:28:07.848Z,36.67
2023-01-29T23:30:56.656Z,33.03
2023-01-29T23:33:46.127Z,34.33
2023-01-29T23:36:35.121Z,36.53
2023-01-29T23:39:23.883Z,34.07
2023-01-29T23:42:13.177Z,29.80
2023-01-29T23:45:03.294Z,31.93
2023-01-29T23:47:52.197Z,31.90
2023-01-29T23:50:40.967Z,30.20
2023-01-29T23:53:30.288Z,30.00
2023-01-29T23:56:19.312Z,30.13
2023-01-29T23:59:11.388Z,30.33
